createdAt,value
2023-02-12T00:01:58.699Z,3.38
2023-02-12T00:05:18.281Z,3.40
2023-02-12T00:08:33.688Z,3.39
2023-02-12T00:11:50.591Z,3.45
2023-02-12T00:15:06.752Z,3.40
2023-02-12T00:18:23.108Z,3.39
2023-02-12T00:21:39.417Z,3.40
2023-02-12T00:24:55.537Z,3.36
2023-02-12T00:28:11.679Z,3.34
2023-02-12T00:31:31.042Z,3.35
2023-02-12T00:34:47.523Z,3.37
2023-02-12T00:38:04.996Z,3.37
2023-02-12T00:41:21.581Z,3.39
2023-02-12T00:44:37.792Z,3.32
2023-02-12T00:47:53.872Z,3.35
2023-02-12T00:51:11.007Z,3.38
2023-02-12T00:54:28.779Z,3.41
2023-02-12T00:57:44.898Z,3.37
2023-02-12T01:01:03.557Z,3.42
2023-02-12T01:04:19.697Z,3.49
2023-02-12T01:07:39.281Z,3.43
2023-02-12T01:11:02.167Z,3.39
2023-02-12T01:14:18.234Z,3.37
2023-02-12T01:17:34.538Z,3.37
2023-02-12T01:20:50.745Z,3.35
2023-02-12T01:24:07.486Z,3.35
2023-02-12T01:27:24.139Z,3.38
2023-02-12T01:30:40.192Z,3.40
2023-02-12T01:34:03.790Z,3.44
2023-02-12T01:37:21.708Z,3.45
2023-02-12T01:40:38.114Z,3.44
2023-02-12T01:44:09.601Z,3.40
2023-02-12T01:47:30.115Z,3.45
2023-02-12T01:50:45.589Z,3.48
2023-02-12T01:54:05.776Z,3.43
2023-02-12T01:57:23.500Z,3.52
2023-02-12T02:00:40.130Z,3.54
2023-02-12T02:04:00.429Z,3.53
2023-02-12T02:07:18.720Z,3.56
2023-02-12T02:10:36.287Z,3.60
2023-02-12T02:14:06.486Z,3.62
2023-02-12T02:17:47.095Z,3.65
2023-02-12T02:21:49.991Z,3.63
2023-02-12T02:25:45.575Z,3.63
2023-02-12T02:29:22.456Z,3.69
2023-02-12T02:32:41.791Z,3.71
2023-02-12T02:36:05.962Z,3.68
2023-02-12T02:39:28.946Z,3.69
2023-02-12T02:42:49.592Z,3.73
2023-02-12T02:46:11.664Z,3.73
2023-02-12T02:49:33.362Z,3.70
2023-02-12T02:52:54.153Z,3.75
2023-02-12T02:56:15.017Z,3.77
2023-02-12T02:59:36.303Z,3.78
2023-02-12T03:02:56.955Z,3.74
2023-02-12T03:06:19.238Z,3.77
2023-02-12T03:09:40.187Z,3.81
2023-02-12T03:13:01.426Z,3.84
2023-02-12T03:16:23.369Z,3.84
2023-02-12T03:19:43.696Z,3.83
2023-02-12T03:23:06.428Z,3.84
2023-02-12T03:26:27.300Z,3.83
2023-02-12T03:29:44.909Z,3.83
2023-02-12T03:33:06.700Z,3.80
2023-02-12T03:36:31.497Z,3.78
2023-02-12T03:39:55.683Z,3.76
2023-02-12T03:43:17.569Z,3.73
2023-02-12T03:46:39.492Z,3.76
2023-02-12T03:50:07.739Z,3.75
2023-02-12T03:53:23.652Z,3.69
2023-02-12T03:56:44.258Z,3.67
2023-02-12T04:00:01.118Z,3.66
2023-02-12T04:03:19.659Z,3.72
2023-02-12T04:06:36.887Z,3.74
2023-02-12T04:09:53.178Z,3.75
2023-02-12T04:13:17.348Z,3.76
2023-02-12T04:16:38.925Z,3.77
2023-02-12T04:20:04.063Z,3.77
2023-02-12T04:23:31.045Z,3.77
2023-02-12T04:26:53.230Z,3.72
2023-02-12T04:30:18.259Z,3.75
2023-02-12T04:33:40.329Z,3.73
2023-02-12T04:37:02.409Z,3.74
2023-02-12T04:40:24.539Z,3.70
2023-02-12T04:43:43.094Z,3.63
2023-02-12T04:47:00.915Z,3.65
2023-02-12T04:50:19.594Z,3.67
2023-02-12T04:53:35.714Z,3.68
2023-02-12T04:56:53.904Z,3.69
2023-02-12T05:00:15.583Z,3.67
2023-02-12T05:03:31.615Z,3.67
2023-02-12T05:06:49.792Z,3.65
2023-02-12T05:10:05.857Z,3.61
2023-02-12T05:13:22.036Z,3.56
2023-02-12T05:16:38.089Z,3.51
2023-02-12T05:19:55.550Z,3.43
2023-02-12T05:23:11.705Z,3.28
2023-02-12T05:26:29.701Z,3.07
2023-02-12T05:29:46.029Z,2.91
2023-02-12T05:33:02.431Z,2.94
2023-02-12T05:36:22.158Z,2.89
2023-02-12T05:39:38.568Z,2.87
2023-02-12T05:42:54.610Z,2.74
2023-02-12T05:46:12.887Z,2.66
2023-02-12T05:49:28.942Z,2.73
2023-02-12T05:52:45.102Z,2.78
2023-02-12T05:56:01.189Z,2.82
2023-02-12T05:59:23.247Z,2.80
2023-02-12T06:02:40.932Z,2.76
2023-02-12T06:06:01.604Z,2.66
2023-02-12T06:09:19.196Z,2.67
2023-02-12T06:12:35.342Z,2.62
2023-02-12T06:15:52.604Z,2.66
2023-02-12T06:19:11.744Z,2.71
2023-02-12T06:22:27.828Z,2.63
2023-02-12T06:25:44.808Z,2.53
2023-02-12T06:29:01.338Z,2.61
2023-02-12T06:32:18.549Z,2.65
2023-02-12T06:35:34.901Z,2.64
2023-02-12T06:38:51.740Z,2.71
2023-02-12T06:42:10.322Z,2.72
2023-02-12T06:45:26.662Z,2.61
2023-02-12T06:48:43.214Z,2.50
2023-02-12T06:52:01.087Z,2.50
2023-02-12T06:55:18.095Z,2.57
2023-02-12T06:58:34.324Z,2.61
2023-02-12T07:01:50.877Z,2.58
2023-02-12T07:05:08.271Z,2.66
2023-02-12T07:08:24.662Z,2.70
2023-02-12T07:11:42.711Z,2.66
2023-02-12T07:14:58.932Z,2.67
2023-02-12T07:18:15.228Z,2.70
2023-02-12T07:21:32.818Z,2.73
2023-02-12T07:24:51.459Z,2.70
2023-02-12T07:28:07.990Z,2.63
2023-02-12T07:31:27.293Z,2.59
2023-02-12T07:34:43.737Z,2.56
2023-02-12T07:37:59.561Z,2.56
2023-02-12T07:41:23.607Z,2.54
2023-02-12T07:44:39.934Z,2.49
2023-02-12T07:47:56.095Z,2.43
2023-02-12T07:51:16.985Z,2.44
2023-02-12T07:54:33.717Z,2.46
2023-02-12T07:57:49.940Z,2.48
2023-02-12T08:01:06.001Z,2.54
2023-02-12T08:04:25.076Z,2.55
2023-02-12T08:07:41.663Z,2.53
2023-02-12T08:10:58.068Z,2.46
2023-02-12T08:14:15.714Z,2.47
2023-02-12T08:17:32.326Z,2.49
2023-02-12T08:20:48.421Z,2.49
2023-02-12T08:24:06.728Z,2.49
2023-02-12T08:27:22.808Z,2.50
2023-02-12T08:30:39.001Z,2.45
2023-02-12T08:33:59.260Z,2.49
2023-02-12T08:37:16.349Z,2.54
2023-02-12T08:40:32.484Z,2.54
2023-02-12T08:43:50.015Z,2.33
2023-02-12T08:47:07.488Z,2.25
2023-02-12T08:50:24.422Z,2.36
2023-02-12T08:53:40.772Z,2.45
2023-02-12T08:56:57.800Z,2.44
2023-02-12T09:00:17.098Z,2.22
2023-02-12T09:03:35.852Z,2.39
2023-02-12T09:06:52.831Z,2.37
2023-02-12T09:10:11.079Z,2.23
2023-02-12T09:13:30.773Z,2.16
2023-02-12T09:16:48.130Z,2.24
2023-02-12T09:20:04.940Z,2.30
2023-02-12T09:23:22.387Z,2.37
2023-02-12T09:26:39.367Z,2.47
2023-02-12T09:29:56.730Z,2.55
2023-02-12T09:33:14.782Z,2.53
2023-02-12T09:36:31.576Z,2.61
2023-02-12T09:39:49.597Z,2.63
2023-02-12T09:43:21.034Z,2.65
2023-02-12T09:46:42.425Z,2.56
2023-02-12T09:50:11.833Z,2.57
2023-02-12T09:53:28.726Z,2.61
2023-02-12T09:56:49.998Z,2.63
2023-02-12T10:00:11.923Z,2.71
2023-02-12T10:03:29.363Z,2.68
2023-02-12T10:06:52.812Z,2.57
2023-02-12T10:10:40.479Z,2.71
2023-02-12T10:14:03.555Z,2.69
2023-02-12T10:17:27.012Z,2.72
2023-02-12T10:21:00.772Z,2.87
2023-02-12T10:24:39.094Z,3.09
2023-02-12T10:28:00.198Z,3.25
2023-02-12T10:31:21.130Z,3.35
2023-02-12T10:34:42.681Z,3.39
2023-02-12T10:38:04.102Z,3.43
2023-02-12T10:41:23.804Z,3.62
2023-02-12T10:44:41.202Z,3.79
2023-02-12T10:48:00.986Z,3.89
2023-02-12T10:51:35.938Z,3.64
2023-02-12T10:54:54.581Z,3.74
2023-02-12T10:58:21.837Z,3.83
2023-02-12T11:01:39.989Z,3.78
2023-02-12T11:04:56.971Z,3.86
2023-02-12T11:08:15.900Z,3.91
2023-02-12T11:11:37.216Z,3.91
2023-02-12T11:14:58.264Z,4.00
2023-02-12T11:18:19.815Z,4.17
2023-02-12T11:21:38.341Z,4.41
2023-02-12T11:24:56.991Z,4.67
2023-02-12T11:28:23.099Z,4.81
2023-02-12T11:31:42.544Z,4.81
2023-02-12T11:35:06.405Z,4.65
2023-02-12T11:38:33.361Z,4.65
2023-02-12T11:41:51.151Z,4.72
2023-02-12T11:45:09.998Z,4.70
2023-02-12T11:48:32.986Z,4.72
2023-02-12T11:51:52.927Z,4.73
2023-02-12T11:55:12.748Z,4.88
2023-02-12T11:58:33.994Z,4.92
2023-02-12T12:01:53.892Z,4.98
2023-02-12T12:05:15.495Z,4.80
2023-02-12T12:08:37.890Z,4.81
2023-02-12T12:12:02.962Z,4.61
2023-02-12T12:15:42.142Z,4.39
2023-02-12T12:19:16.273Z,4.34
2023-02-12T12:22:44.705Z,4.30
2023-02-12T12:26:04.944Z,4.32
2023-02-12T12:29:29.245Z,4.43
2023-02-12T12:32:50.659Z,4.41
2023-02-12T12:36:45.267Z,4.35
2023-02-12T12:40:32.020Z,4.33
2023-02-12T12:43:59.083Z,4.35
2023-02-12T12:47:25.148Z,4.45
2023-02-12T12:51:02.260Z,4.46
2023-02-12T12:57:45.556Z,4.25
2023-02-12T13:01:18.666Z,4.24
2023-02-12T13:05:18.117Z,4.22
2023-02-12T13:11:58.794Z,4.18
2023-02-12T13:15:23.415Z,4.11
2023-02-12T13:18:51.421Z,4.13
2023-02-12T13:22:12.603Z,4.09
2023-02-12T13:25:36.609Z,3.94
2023-02-12T13:28:58.533Z,3.95
2023-02-12T13:32:20.760Z,3.98
2023-02-12T13:35:40.985Z,3.99
2023-02-12T13:39:28.034Z,3.94
2023-02-12T13:42:53.887Z,3.98
2023-02-12T13:46:15.883Z,3.95
2023-02-12T13:49:39.906Z,3.96
2023-02-12T13:56:20.809Z,4.00
2023-02-12T13:59:55.760Z,3.98
2023-02-12T14:03:17.568Z,4.01
2023-02-12T14:06:35.685Z,4.04
2023-02-12T14:10:12.803Z,4.08
2023-02-12T14:13:35.010Z,4.05
2023-02-12T14:16:51.761Z,4.01
2023-02-12T14:20:18.993Z,4.01
2023-02-12T14:23:36.753Z,3.98
2023-02-12T14:26:53.383Z,3.90
2023-02-12T14:30:33.102Z,3.92
2023-02-12T14:33:50.677Z,3.92
2023-02-12T14:37:38.177Z,3.87
2023-02-12T14:40:58.605Z,3.88
2023-02-12T14:44:51.865Z,3.93
2023-02-12T14:48:11.105Z,3.82
2023-02-12T14:51:33.629Z,3.85
2023-02-12T14:54:53.680Z,3.75
2023-02-12T14:58:18.203Z,3.69
2023-02-12T15:01:41.148Z,3.63
2023-02-12T15:05:00.376Z,3.66
2023-02-12T15:08:24.013Z,3.69
2023-02-12T15:11:47.254Z,3.68
2023-02-12T15:15:10.280Z,3.64
2023-02-12T15:18:31.470Z,3.60
2023-02-12T15:21:48.551Z,3.60
2023-02-12T15:25:22.945Z,3.61
2023-02-12T15:28:42.379Z,3.61
2023-02-12T15:32:05.163Z,3.59
2023-02-12T15:35:33.500Z,3.53
2023-02-12T15:38:53.262Z,3.32
2023-02-12T15:42:10.274Z,3.23
2023-02-12T15:45:33.268Z,3.17
2023-02-12T15:48:52.696Z,2.95
2023-02-12T15:52:13.039Z,2.83
2023-02-12T15:55:32.934Z,2.73
2023-02-12T15:58:54.746Z,2.75
2023-02-12T16:02:23.278Z,2.77
2023-02-12T16:05:45.056Z,2.84
2023-02-12T16:09:05.187Z,2.91
2023-02-12T16:12:25.230Z,2.92
2023-02-12T16:15:42.267Z,2.95
2023-02-12T16:19:20.132Z,2.93
2023-02-12T16:22:42.188Z,2.90
2023-02-12T16:26:03.674Z,2.89
2023-02-12T16:29:27.001Z,2.88
2023-02-12T16:32:48.797Z,2.84
2023-02-12T16:36:15.590Z,2.83
2023-02-12T16:42:36.059Z,2.75
2023-02-12T16:45:53.960Z,2.72
2023-02-12T16:49:14.102Z,2.73
2023-02-12T16:52:41.782Z,2.69
2023-02-12T16:55:58.476Z,2.64
2023-02-12T16:59:15.889Z,2.60
2023-02-12T17:02:34.541Z,2.59
2023-02-12T17:05:52.775Z,2.57
2023-02-12T17:09:09.125Z,2.48
2023-02-12T17:12:25.805Z,2.50
2023-02-12T17:15:46.971Z,2.51
2023-02-12T17:19:03.389Z,2.44
2023-02-12T17:22:28.323Z,2.35
2023-02-12T17:28:49.512Z,2.35
2023-02-12T17:32:06.903Z,2.21
2023-02-12T17:35:23.814Z,2.16
2023-02-12T17:38:40.600Z,2.08
2023-02-12T17:42:01.051Z,1.98
2023-02-12T17:45:20.422Z,1.96
2023-02-12T17:48:41.133Z,1.92
2023-02-12T17:51:58.813Z,1.99
2023-02-12T17:55:18.613Z,1.99
2023-02-12T17:58:42.345Z,1.96
2023-02-12T18:02:03.500Z,1.95
2023-02-12T18:05:21.931Z,1.90
2023-02-12T18:08:39.221Z,1.87
2023-02-12T18:11:55.507Z,1.83
2023-02-12T18:15:15.789Z,1.82
2023-02-12T18:18:32.509Z,1.83
2023-02-12T18:21:48.911Z,1.74
2023-02-12T18:28:08.877Z,1.78
2023-02-12T18:31:26.734Z,1.80
2023-02-12T18:34:43.806Z,1.81
2023-02-12T18:38:02.081Z,1.77
2023-02-12T18:41:23.728Z,1.76
2023-02-12T18:44:40.032Z,1.77
2023-02-12T18:47:56.255Z,1.78
2023-02-12T18:51:14.890Z,1.83
2023-02-12T19:00:37.857Z,1.76
2023-02-12T19:03:57.696Z,1.78
2023-02-12T19:07:23.921Z,1.87
2023-02-12T19:14:18.281Z,1.94
2023-02-12T19:17:36.188Z,1.92
2023-02-12T19:21:19.775Z,1.97
2023-02-12T19:27:48.467Z,1.76
2023-02-12T19:31:08.656Z,1.75
2023-02-12T19:34:28.233Z,1.87
2023-02-12T19:37:48.227Z,1.98
2023-02-12T19:41:17.851Z,2.00
2023-02-12T19:44:36.205Z,1.98
2023-02-12T19:47:52.735Z,1.94
2023-02-12T19:51:10.791Z,1.89
2023-02-12T20:00:36.164Z,1.44
2023-02-12T20:03:53.870Z,1.37
2023-02-12T20:07:11.460Z,1.36
2023-02-12T20:10:28.286Z,1.24
2023-02-12T20:13:45.142Z,1.13
2023-02-12T20:17:04.843Z,1.05
2023-02-12T20:20:21.011Z,1.04
2023-02-12T20:23:37.375Z,1.16
2023-02-12T20:26:54.780Z,1.25
2023-02-12T20:30:13.802Z,1.10
2023-02-12T20:33:31.780Z,1.04
2023-02-12T20:36:51.942Z,0.96
2023-02-12T20:40:08.458Z,1.02
2023-02-12T20:43:24.920Z,0.91
2023-02-12T20:46:44.673Z,1.00
2023-02-12T20:50:01.422Z,1.22
2023-02-12T20:53:18.599Z,1.33
2023-02-12T20:56:37.842Z,1.31
2023-02-12T20:59:56.056Z,1.09
2023-02-12T21:03:12.468Z,1.01
2023-02-12T21:06:30.946Z,0.95
2023-02-12T21:09:49.205Z,1.02
2023-02-12T21:13:07.257Z,0.88
2023-02-12T21:16:27.169Z,0.67
2023-02-12T21:19:43.796Z,0.61
2023-02-12T21:23:00.200Z,0.52
2023-02-12T21:26:19.663Z,0.48
2023-02-12T21:29:33.699Z,0.49
2023-02-12T21:32:49.539Z,0.57
2023-02-12T21:36:08.163Z,0.65
2023-02-12T21:39:29.532Z,0.68
2023-02-12T21:42:49.259Z,0.67
2023-02-12T21:46:07.006Z,0.70
2023-02-12T21:49:28.783Z,0.70
2023-02-12T21:52:45.339Z,0.65
2023-02-12T21:56:02.225Z,0.68
2023-02-12T21:59:20.045Z,0.76
2023-02-12T22:02:42.769Z,0.88
2023-02-12T22:06:00.634Z,1.03
2023-02-12T22:09:19.857Z,1.11
2023-02-12T22:12:35.546Z,1.17
2023-02-12T22:15:55.629Z,1.24
2023-02-12T22:19:10.353Z,1.36
2023-02-12T22:22:26.233Z,1.44
2023-02-12T22:28:49.844Z,1.60
2023-02-12T22:32:06.257Z,1.65
2023-02-12T22:35:22.921Z,1.66
2023-02-12T22:38:40.617Z,1.70
2023-02-12T22:41:56.574Z,1.75
2023-02-12T22:45:14.102Z,1.78
2023-02-12T22:48:31.013Z,1.83
2023-02-12T22:51:47.913Z,1.91
2023-02-12T22:55:04.640Z,1.98
2023-02-12T22:58:22.458Z,1.99
2023-02-12T23:01:40.536Z,1.89
2023-02-12T23:04:56.775Z,1.90
2023-02-12T23:08:13.870Z,1.92
2023-02-12T23:11:30.517Z,1.84
2023-02-12T23:14:46.683Z,1.86
2023-02-12T23:18:02.909Z,1.93
2023-02-12T23:21:19.242Z,1.98
2023-02-12T23:24:35.615Z,1.97
2023-02-12T23:30:56.416Z,1.93
2023-02-12T23:34:12.764Z,1.91
2023-02-12T23:37:28.940Z,1.91
2023-02-12T23:40:45.314Z,1.86
2023-02-12T23:44:01.381Z,1.87
2023-02-12T23:47:17.530Z,1.91
2023-02-12T23:50:34.071Z,1.98
2023-02-12T23:53:50.153Z,2.00
2023-02-12T23:57:06.235Z,1.92
